sensor_id;sensor_type;location;lat;lon;timestamp;P1;durP1;ratioP1;P2;durP2;ratioP2
2658;SDS011;1339;53.304;10.406;2023-09-30T17:26:07;6.33;;;4.07;;
2658;SDS011;1339;53.304;10.406;2023-09-30T17:28:35;4.10;;;3.70;;
2658;SDS011;1339;53.304;10.406;2023-09-30T17:31:02;3.93;;;3.53;;
2658;SDS011;1339;53.304;10.406;2023-09-30T17:33:29;6.97;;;3.57;;
2658;SDS011;1339;53.304;10.406;2023-09-30T17:35:58;3.70;;;2.83;;
2658;SDS011;1339;53.304;10.406;2023-09-30T17:38:25;5.77;;;2.50;;
2658;SDS011;1339;53.304;10.406;2023-09-30T17:40:53;4.37;;;2.60;;
2658;SDS011;1339;53.304;10.406;2023-09-30T17:43:22;3.70;;;2.20;;
2658;SDS011;1339;53.304;10.406;2023-09-30T17:45:49;4.17;;;2.10;;
2658;SDS011;1339;53.304;10.406;2023-09-30T17:48:16;2.77;;;2.17;;
2658;SDS011;1339;53.304;10.406;2023-09-30T17:50:44;2.40;;;2.17;;
2658;SDS011;1339;53.304;10.406;2023-09-30T17:53:11;2.87;;;2.10;;
2658;SDS011;1339;53.304;10.406;2023-09-30T17:55:38;2.67;;;2.13;;
2658;SDS011;1339;53.304;10.406;2023-09-30T17:58:05;4.13;;;1.97;;
2658;SDS011;1339;53.304;10.406;2023-09-30T18:00:33;9.90;;;3.30;;
2658;SDS011;1339;53.304;10.406;2023-09-30T18:03:00;3.30;;;2.20;;
2658;SDS011;1339;53.304;10.406;2023-09-30T18:05:27;5.10;;;2.37;;
2658;SDS011;1339;53.304;10.406;2023-09-30T18:07:54;2.30;;;1.83;;
2658;SDS011;1339;53.304;10.406;2023-09-30T18:10:22;3.63;;;1.93;;
2658;SDS011;1339;53.304;10.406;2023-09-30T18:12:49;5.03;;;2.30;;
2658;SDS011;1339;53.304;10.406;2023-09-30T18:15:16;3.90;;;1.90;;
2658;SDS011;1339;53.304;10.406;2023-09-30T18:17:45;3.90;;;2.13;;
2658;SDS011;1339;53.304;10.406;2023-09-30T18:20:12;5.90;;;2.20;;
2658;SDS011;1339;53.304;10.406;2023-09-30T18:22:38;2.73;;;2.07;;
2658;SDS011;1339;53.304;10.406;2023-09-30T18:25:06;3.73;;;1.90;;
2658;SDS011;1339;53.304;10.406;2023-09-30T18:27:33;2.00;;;1.80;;
2658;SDS011;1339;53.304;10.406;2023-09-30T18:30:02;6.60;;;2.37;;
2658;SDS011;1339;53.304;10.406;2023-09-30T18:32:29;4.43;;;2.33;;
2658;SDS011;1339;53.304;10.406;2023-09-30T18:34:58;5.30;;;2.03;;
2658;SDS011;1339;53.304;10.406;2023-09-30T18:37:25;5.60;;;2.70;;
2658;SDS011;1339;53.304;10.406;2023-09-30T18:39:52;4.90;;;2.30;;
2658;SDS011;1339;53.304;10.406;2023-09-30T18:42:20;5.03;;;2.07;;
2658;SDS011;1339;53.304;10.406;2023-09-30T18:44:47;4.80;;;1.97;;
2658;SDS011;1339;53.304;10.406;2023-09-30T18:47:15;1.90;;;1.70;;
2658;SDS011;1339;53.304;10.406;2023-09-30T18:49:41;4.37;;;1.73;;
2658;SDS011;1339;53.304;10.406;2023-09-30T18:52:10;2.90;;;2.00;;
2658;SDS011;1339;53.304;10.406;2023-09-30T18:54:37;4.90;;;2.00;;
2658;SDS011;1339;53.304;10.406;2023-09-30T18:57:04;4.47;;;1.90;;
2658;SDS011;1339;53.304;10.406;2023-09-30T18:59:31;4.57;;;2.60;;
2658;SDS011;1339;53.304;10.406;2023-09-30T19:01:58;6.27;;;2.50;;
2658;SDS011;1339;53.304;10.406;2023-09-30T19:04:25;6.63;;;2.67;;
2658;SDS011;1339;53.304;10.406;2023-09-30T19:06:51;3.07;;;2.13;;
2658;SDS011;1339;53.304;10.406;2023-09-30T19:09:20;6.23;;;2.77;;
2658;SDS011;1339;53.304;10.406;2023-09-30T19:11:47;4.63;;;2.30;;
2658;SDS011;1339;53.304;10.406;2023-09-30T19:14:14;6.93;;;2.27;;
2658;SDS011;1339;53.304;10.406;2023-09-30T19:16:41;5.20;;;2.40;;
2658;SDS011;1339;53.304;10.406;2023-09-30T19:19:08;3.70;;;2.73;;
2658;SDS011;1339;53.304;10.406;2023-09-30T19:21:35;10.30;;;6.17;;
2658;SDS011;1339;53.304;10.406;2023-09-30T19:24:02;9.47;;;6.47;;
2658;SDS011;1339;53.304;10.406;2023-09-30T19:26:31;6.37;;;5.57;;
2658;SDS011;1339;53.304;10.406;2023-09-30T19:28:58;4.90;;;4.40;;
2658;SDS011;1339;53.304;10.406;2023-09-30T19:31:26;5.97;;;4.50;;
2658;SDS011;1339;53.304;10.406;2023-09-30T19:33:53;9.17;;;4.47;;
2658;SDS011;1339;53.304;10.406;2023-09-30T19:36:20;5.10;;;4.60;;
2658;SDS011;1339;53.304;10.406;2023-09-30T19:38:49;6.40;;;4.10;;
2658;SDS011;1339;53.304;10.406;2023-09-30T19:41:17;7.87;;;3.27;;
2658;SDS011;1339;53.304;10.406;2023-09-30T19:43:47;5.37;;;3.47;;
2658;SDS011;1339;53.304;10.406;2023-09-30T19:46:14;5.27;;;3.57;;
2658;SDS011;1339;53.304;10.406;2023-09-30T19:48:41;6.70;;;4.20;;
2658;SDS011;1339;53.304;10.406;2023-09-30T19:51:08;4.57;;;4.00;;
2658;SDS011;1339;53.304;10.406;2023-09-30T19:53:35;6.80;;;3.97;;
2658;SDS011;1339;53.304;10.406;2023-09-30T19:56:02;4.50;;;3.33;;
2658;SDS011;1339;53.304;10.406;2023-09-30T19:58:29;6.10;;;4.83;;
2658;SDS011;1339;53.304;10.406;2023-09-30T20:00:58;6.37;;;5.67;;
2658;SDS011;1339;53.304;10.406;2023-09-30T20:03:24;6.13;;;5.53;;
2658;SDS011;1339;53.304;10.406;2023-09-30T20:05:51;7.83;;;5.10;;
2658;SDS011;1339;53.304;10.406;2023-09-30T20:08:18;5.10;;;4.70;;
2658;SDS011;1339;53.304;10.406;2023-09-30T20:10:46;9.53;;;5.90;;
2658;SDS011;1339;53.304;10.406;2023-09-30T20:13:13;7.30;;;5.80;;
2658;SDS011;1339;53.304;10.406;2023-09-30T20:15:40;6.87;;;4.60;;
2658;SDS011;1339;53.304;10.406;2023-09-30T20:18:08;5.03;;;4.20;;
2658;SDS011;1339;53.304;10.406;2023-09-30T20:20:35;7.57;;;4.53;;
2658;SDS011;1339;53.304;10.406;2023-09-30T20:23:02;7.03;;;4.17;;
2658;SDS011;1339;53.304;10.406;2023-09-30T20:25:31;6.23;;;5.63;;
2658;SDS011;1339;53.304;10.406;2023-09-30T20:27:58;7.00;;;6.10;;
2658;SDS011;1339;53.304;10.406;2023-09-30T20:30:30;11.13;;;5.10;;
2658;SDS011;1339;53.304;10.406;2023-09-30T20:32:57;9.97;;;4.47;;
2658;SDS011;1339;53.304;10.406;2023-09-30T20:35:26;4.73;;;4.10;;
2658;SDS011;1339;53.304;10.406;2023-09-30T20:37:53;5.47;;;4.07;;
2658;SDS011;1339;53.304;10.406;2023-09-30T20:40:20;4.80;;;3.50;;
2658;SDS011;1339;53.304;10.406;2023-09-30T20:42:47;3.53;;;2.90;;
2658;SDS011;1339;53.304;10.406;2023-09-30T20:45:15;9.70;;;3.67;;
2658;SDS011;1339;53.304;10.406;2023-09-30T20:47:42;3.83;;;3.53;;
2658;SDS011;1339;53.304;10.406;2023-09-30T20:50:09;7.00;;;3.50;;
2658;SDS011;1339;53.304;10.406;2023-09-30T20:52:37;4.30;;;3.80;;
2658;SDS011;1339;53.304;10.406;2023-09-30T20:55:04;5.40;;;4.20;;
2658;SDS011;1339;53.304;10.406;2023-09-30T20:57:31;4.90;;;3.90;;
2658;SDS011;1339;53.304;10.406;2023-09-30T20:59:59;5.83;;;4.43;;
2658;SDS011;1339;53.304;10.406;2023-09-30T21:02:25;5.30;;;3.67;;
2658;SDS011;1339;53.304;10.406;2023-09-30T21:04:53;7.00;;;3.33;;
2658;SDS011;1339;53.304;10.406;2023-09-30T21:07:20;4.00;;;3.60;;
2658;SDS011;1339;53.304;10.406;2023-09-30T21:09:48;5.73;;;4.10;;
2658;SDS011;1339;53.304;10.406;2023-09-30T21:12:15;4.53;;;2.70;;
2658;SDS011;1339;53.304;10.406;2023-09-30T21:14:42;5.17;;;3.47;;
2658;SDS011;1339;53.304;10.406;2023-09-30T21:17:09;3.93;;;3.03;;
2658;SDS011;1339;53.304;10.406;2023-09-30T21:19:36;3.40;;;2.83;;
2658;SDS011;1339;53.304;10.406;2023-09-30T21:22:03;5.43;;;3.70;;
2658;SDS011;1339;53.304;10.406;2023-09-30T21:24:30;3.30;;;3.00;;
2658;SDS011;1339;53.304;10.406;2023-09-30T21:26:59;5.10;;;3.47;;
2658;SDS011;1339;53.304;10.406;2023-09-30T21:29:27;4.97;;;3.13;;
2658;SDS011;1339;53.304;10.406;2023-09-30T21:31:54;3.17;;;2.77;;
2658;SDS011;1339;53.304;10.406;2023-09-30T21:34:21;3.40;;;3.03;;
2658;SDS011;1339;53.304;10.406;2023-09-30T21:36:48;6.80;;;3.47;;
2658;SDS011;1339;53.304;10.406;2023-09-30T21:39:15;3.90;;;3.03;;
2658;SDS011;1339;53.304;10.406;2023-09-30T21:41:44;6.90;;;3.07;;
2658;SDS011;1339;53.304;10.406;2023-09-30T21:44:12;6.83;;;2.63;;
2658;SDS011;1339;53.304;10.406;2023-09-30T21:46:39;8.13;;;3.57;;
2658;SDS011;1339;53.304;10.406;2023-09-30T21:49:06;6.10;;;3.40;;
2658;SDS011;1339;53.304;10.406;2023-09-30T21:51:33;3.37;;;2.37;;
2658;SDS011;1339;53.304;10.406;2023-09-30T21:54:00;4.63;;;2.87;;
2658;SDS011;1339;53.304;10.406;2023-09-30T21:56:27;7.10;;;3.30;;
2658;SDS011;1339;53.304;10.406;2023-09-30T21:58:54;4.23;;;2.60;;
2658;SDS011;1339;53.304;10.406;2023-09-30T22:01:23;4.20;;;2.40;;
2658;SDS011;1339;53.304;10.406;2023-09-30T22:03:50;3.90;;;3.07;;
2658;SDS011;1339;53.304;10.406;2023-09-30T22:06:17;4.03;;;2.67;;
2658;SDS011;1339;53.304;10.406;2023-09-30T22:08:44;3.60;;;3.00;;
2658;SDS011;1339;53.304;10.406;2023-09-30T22:11:11;7.47;;;3.00;;
2658;SDS011;1339;53.304;10.406;2023-09-30T22:13:38;6.07;;;3.03;;
2658;SDS011;1339;53.304;10.406;2023-09-30T22:16:05;11.50;;;3.70;;
2658;SDS011;1339;53.304;10.406;2023-09-30T22:18:34;6.80;;;3.80;;
2658;SDS011;1339;53.304;10.406;2023-09-30T22:21:01;2.67;;;2.47;;
2658;SDS011;1339;53.304;10.406;2023-09-30T22:23:28;6.63;;;2.90;;
2658;SDS011;1339;53.304;10.406;2023-09-30T22:25:54;4.40;;;2.83;;
2658;SDS011;1339;53.304;10.406;2023-09-30T22:28:22;5.43;;;2.73;;
2658;SDS011;1339;53.304;10.406;2023-09-30T22:30:49;3.93;;;3.43;;
2658;SDS011;1339;53.304;10.406;2023-09-30T22:33:19;5.40;;;3.67;;
2658;SDS011;1339;53.304;10.406;2023-09-30T22:35:48;7.03;;;3.43;;
2658;SDS011;1339;53.304;10.406;2023-09-30T22:38:16;5.93;;;2.83;;
2658;SDS011;1339;53.304;10.406;2023-09-30T22:40:43;3.43;;;2.60;;
2658;SDS011;1339;53.304;10.406;2023-09-30T22:43:11;6.37;;;2.80;;
2658;SDS011;1339;53.304;10.406;2023-09-30T22:45:38;4.13;;;3.20;;
2658;SDS011;1339;53.304;10.406;2023-09-30T22:48:06;3.33;;;3.03;;
2658;SDS011;1339;53.304;10.406;2023-09-30T22:50:33;6.20;;;3.03;;
2658;SDS011;1339;53.304;10.406;2023-09-30T22:53:02;5.17;;;3.63;;
2658;SDS011;1339;53.304;10.406;2023-09-30T22:55:30;6.93;;;3.60;;
